sensor_id;sensor_type;location;lat;lon;timestamp;pressure;altitude;pressure_sealevel;temperature;humidity
69171;BME280;56279;47.902;12.308;2024-03-02T00:00:24;94422.75;;;6.13;100.00
69171;BME280;56279;47.902;12.308;2024-03-02T00:02:26;94423.25;;;6.15;100.00
69171;BME280;56279;47.902;12.308;2024-03-02T00:04:27;94424.03;;;6.15;100.00
69171;BME280;56279;47.902;12.308;2024-03-02T00:06:29;94419.31;;;6.17;100.00
69171;BME280;56279;47.902;12.308;2024-03-02T00:08:30;94415.91;;;6.17;100.00
69171;BME280;56279;47.902;12.308;2024-03-02T00:10:37;94420.09;;;6.18;100.00
69171;BME280;56279;47.902;12.308;2024-03-02T00:12:41;94419.03;;;6.19;100.00
69171;BME280;56279;47.902;12.308;2024-03-02T00:14:42;94417.19;;;6.19;100.00
69171;BME280;56279;47.902;12.308;2024-03-02T00:16:44;94417.19;;;6.19;100.00
69171;BME280;56279;47.902;12.308;2024-03-02T00:18:45;94426.63;;;6.20;100.00
69171;BME280;56279;47.902;12.308;2024-03-02T00:20:46;94416.91;;;6.21;100.00
69171;BME280;56279;47.902;12.308;2024-03-02T00:22:58;94422.16;;;6.21;100.00
69171;BME280;56279;47.902;12.308;2024-03-02T00:25:03;94418.50;;;6.22;100.00
69171;BME280;56279;47.902;12.308;2024-03-02T00:27:05;94419.28;;;6.22;100.00
69171;BME280;56279;47.902;12.308;2024-03-02T00:29:08;94416.91;;;6.21;100.00
69171;BME280;56279;47.902;12.308;2024-03-02T00:31:15;94418.22;;;6.23;100.00
69171;BME280;56279;47.902;12.308;2024-03-02T00:33:16;94412.22;;;6.23;100.00
69171;BME280;56279;47.902;12.308;2024-03-02T00:35:18;94409.31;;;6.24;100.00
69171;BME280;56279;47.902;12.308;2024-03-02T00:37:20;94412.72;;;6.25;100.00
69171;BME280;56279;47.902;12.308;2024-03-02T00:39:22;94412.72;;;6.25;100.00
69171;BME280;56279;47.902;12.308;2024-03-02T00:41:31;94408.25;;;6.25;100.00
69171;BME280;56279;47.902;12.308;2024-03-02T00:45:44;94410.09;;;6.25;100.00
69171;BME280;56279;47.902;12.308;2024-03-02T00:47:47;94403.00;;;6.25;100.00
69171;BME280;56279;47.902;12.308;2024-03-02T00:49:48;94401.19;;;6.26;100.00
69171;BME280;56279;47.902;12.308;2024-03-02T00:51:51;94401.47;;;6.24;100.00
69171;BME280;56279;47.902;12.308;2024-03-02T00:53:55;94403.78;;;6.26;100.00
69171;BME280;56279;47.902;12.308;2024-03-02T00:55:58;94408.25;;;6.25;100.00
69171;BME280;56279;47.902;12.308;2024-03-02T00:58:00;94398.56;;;6.26;100.00
69171;BME280;56279;47.902;12.308;2024-03-02T01:00:02;94405.38;;;6.27;100.00
69171;BME280;56279;47.902;12.308;2024-03-02T01:02:04;94397.00;;;6.25;100.00
69171;BME280;56279;47.902;12.308;2024-03-02T01:04:06;94395.16;;;6.25;100.00
69171;BME280;56279;47.902;12.308;2024-03-02T01:06:07;94400.38;;;6.25;100.00
69171;BME280;56279;47.902;12.308;2024-03-02T01:08:09;94397.00;;;6.25;100.00
69171;BME280;56279;47.902;12.308;2024-03-02T01:10:11;94401.47;;;6.24;100.00
69171;BME280;56279;47.902;12.308;2024-03-02T01:12:14;94396.22;;;6.24;100.00
69171;BME280;56279;47.902;12.308;2024-03-02T01:14:16;94395.44;;;6.24;100.00
69171;BME280;56279;47.902;12.308;2024-03-02T01:16:17;94396.50;;;6.23;100.00
69171;BME280;56279;47.902;12.308;2024-03-02T01:18:19;94395.44;;;6.24;100.00
69171;BME280;56279;47.902;12.308;2024-03-02T01:20:20;94391.25;;;6.23;100.00
69171;BME280;56279;47.902;12.308;2024-03-02T01:22:23;94390.47;;;6.22;100.00
69171;BME280;56279;47.902;12.308;2024-03-02T01:24:26;94389.19;;;6.20;100.00
69171;BME280;56279;47.902;12.308;2024-03-02T01:26:29;94392.84;;;6.19;100.00
69171;BME280;56279;47.902;12.308;2024-03-02T01:28:31;94392.06;;;6.18;100.00
69171;BME280;56279;47.902;12.308;2024-03-02T01:30:34;94387.09;;;6.17;100.00
69171;BME280;56279;47.902;12.308;2024-03-02T01:32:37;94382.13;;;6.15;100.00
69171;BME280;56279;47.902;12.308;2024-03-02T01:34:39;94388.69;;;6.13;100.00
69171;BME280;56279;47.902;12.308;2024-03-02T01:36:42;94383.72;;;6.11;100.00
69171;BME280;56279;47.902;12.308;2024-03-02T01:38:44;94377.72;;;6.11;100.00
69171;BME280;56279;47.902;12.308;2024-03-02T01:40:46;94380.88;;;6.08;100.00
69171;BME280;56279;47.902;12.308;2024-03-02T01:42:48;94371.44;;;6.07;100.00
69171;BME280;56279;47.902;12.308;2024-03-02T01:44:51;94368.59;;;6.03;100.00
69171;BME280;56279;47.902;12.308;2024-03-02T01:46:52;94366.78;;;5.99;100.00
69171;BME280;56279;47.902;12.308;2024-03-02T01:48:53;94357.13;;;5.94;100.00
69171;BME280;56279;47.902;12.308;2024-03-02T01:50:55;94363.72;;;5.87;100.00
69171;BME280;56279;47.902;12.308;2024-03-02T01:52:56;94362.69;;;5.78;100.00
69171;BME280;56279;47.902;12.308;2024-03-02T01:54:58;94359.84;;;5.69;100.00
69171;BME280;56279;47.902;12.308;2024-03-02T01:56:59;94358.59;;;5.62;100.00
69171;BME280;56279;47.902;12.308;2024-03-02T01:59:01;94352.31;;;5.57;100.00
69171;BME280;56279;47.902;12.308;2024-03-02T02:01:05;94353.38;;;5.56;100.00
69171;BME280;56279;47.902;12.308;2024-03-02T02:03:08;94353.38;;;5.56;100.00
69171;BME280;56279;47.902;12.308;2024-03-02T02:05:09;94345.25;;;5.58;100.00
69171;BME280;56279;47.902;12.308;2024-03-02T02:07:11;94347.03;;;5.63;100.00
69171;BME280;56279;47.902;12.308;2024-03-02T02:09:12;94348.09;;;5.67;100.00
69171;BME280;56279;47.902;12.308;2024-03-02T02:11:18;94344.16;;;5.69;100.00
69171;BME280;56279;47.902;12.308;2024-03-02T02:13:19;94338.63;;;5.71;100.00
69171;BME280;56279;47.902;12.308;2024-03-02T02:17:23;94334.97;;;5.72;100.00
69171;BME280;56279;47.902;12.308;2024-03-02T02:19:24;94326.34;;;5.71;100.00
69171;BME280;56279;47.902;12.308;2024-03-02T02:21:26;94326.88;;;5.68;100.00
69171;BME280;56279;47.902;12.308;2024-03-02T02:23:28;94324.28;;;5.63;100.00
69171;BME280;56279;47.902;12.308;2024-03-02T02:25:31;94325.88;;;5.59;100.00
69171;BME280;56279;47.902;12.308;2024-03-02T02:27:33;94318.34;;;5.52;100.00
69171;BME280;56279;47.902;12.308;2024-03-02T02:29:34;94322.00;;;5.46;100.00
69171;BME280;56279;47.902;12.308;2024-03-02T02:31:42;94316.78;;;5.41;100.00
69171;BME280;56279;47.902;12.308;2024-03-02T02:33:43;94310.53;;;5.37;100.00
69171;BME280;56279;47.902;12.308;2024-03-02T02:35:45;94309.81;;;5.32;100.00
69171;BME280;56279;47.902;12.308;2024-03-02T02:37:47;94312.16;;;5.28;100.00
69171;BME280;56279;47.902;12.308;2024-03-02T02:39:49;94312.97;;;5.24;100.00
69171;BME280;56279;47.902;12.308;2024-03-02T02:41:52;94309.56;;;5.18;100.00
69171;BME280;56279;47.902;12.308;2024-03-02T02:43:55;94307.50;;;5.15;100.00
69171;BME280;56279;47.902;12.308;2024-03-02T02:45:56;94303.09;;;5.11;100.00
69171;BME280;56279;47.902;12.308;2024-03-02T02:47:58;94296.56;;;5.08;100.00
69171;BME280;56279;47.902;12.308;2024-03-02T02:49:59;94296.03;;;5.06;100.00
69171;BME280;56279;47.902;12.308;2024-03-02T02:52:00;94292.66;;;5.06;100.00
69171;BME280;56279;47.902;12.308;2024-03-02T02:54:01;94290.03;;;5.06;100.00
69171;BME280;56279;47.902;12.308;2024-03-02T02:56:03;94288.97;;;5.07;100.00
69171;BME280;56279;47.902;12.308;2024-03-02T02:58:04;94284.53;;;5.07;100.00
69171;BME280;56279;47.902;12.308;2024-03-02T03:00:10;94287.66;;;5.09;100.00
69171;BME280;56279;47.902;12.308;2024-03-02T03:02:14;94293.38;;;5.11;100.00
69171;BME280;56279;47.902;12.308;2024-03-02T03:04:19;94304.63;;;5.12;100.00
69171;BME280;56279;47.902;12.308;2024-03-02T03:06:21;94301.78;;;5.13;100.00
69171;BME280;56279;47.902;12.308;2024-03-02T03:08:22;94308.56;;;5.14;100.00
69171;BME280;56279;47.902;12.308;2024-03-02T03:10:26;94302.53;;;5.14;100.00
69171;BME280;56279;47.902;12.308;2024-03-02T03:12:28;94293.13;;;5.13;100.00
69171;BME280;56279;47.902;12.308;2024-03-02T03:14:30;94290.53;;;5.13;100.00
69171;BME280;56279;47.902;12.308;2024-03-02T03:16:31;94294.97;;;5.12;100.00
69171;BME280;56279;47.902;12.308;2024-03-02T03:18:33;94299.16;;;5.13;100.00
69171;BME280;56279;47.902;12.308;2024-03-02T03:20:34;94297.06;;;5.15;100.00
69171;BME280;56279;47.902;12.308;2024-03-02T03:22:36;94298.09;;;5.14;100.00
69171;BME280;56279;47.902;12.308;2024-03-02T03:24:39;94298.88;;;5.15;100.00
69171;BME280;56279;47.902;12.308;2024-03-02T03:26:40;94292.84;;;5.14;100.00
69171;BME280;56279;47.902;12.308;2024-03-02T03:28:41;94300.72;;;5.14;100.00
69171;BME280;56279;47.902;12.308;2024-03-02T03:30:42;94298.09;;;5.14;100.00
69171;BME280;56279;47.902;12.308;2024-03-02T03:32:44;94294.97;;;5.12;100.00
69171;BME280;56279;47.902;12.308;2024-03-02T03:34:45;94294.19;;;5.12;100.00
69171;BME280;56279;47.902;12.308;2024-03-02T03:36:46;94299.41;;;5.12;100.00
69171;BME280;56279;47.902;12.308;2024-03-02T03:38:48;94300.47;;;5.11;100.00
69171;BME280;56279;47.902;12.308;2024-03-02T03:40:49;94304.91;;;5.10;100.00
69171;BME280;56279;47.902;12.308;2024-03-02T03:42:52;94300.72;;;5.09;100.00
69171;BME280;56279;47.902;12.308;2024-03-02T03:44:54;94308.84;;;5.08;100.00
69171;BME280;56279;47.902;12.308;2024-03-02T03:46:55;94307.25;;;5.07;100.00
69171;BME280;56279;47.902;12.308;2024-03-02T03:48:56;94301.28;;;5.06;100.00
69171;BME280;56279;47.902;12.308;2024-03-02T03:50:57;94306.75;;;5.05;100.00
69171;BME280;56279;47.902;12.308;2024-03-02T03:52:59;94307.03;;;5.03;100.00
69171;BME280;56279;47.902;12.308;2024-03-02T03:55:00;94313.03;;;5.04;100.00
69171;BME280;56279;47.902;12.308;2024-03-02T03:57:02;94307.03;;;5.03;100.00
69171;BME280;56279;47.902;12.308;2024-03-02T03:59:03;94310.69;;;5.02;100.00
69171;BME280;56279;47.902;12.308;2024-03-02T04:01:06;94313.56;;;5.01;100.00
69171;BME280;56279;47.902;12.308;2024-03-02T04:03:07;94308.63;;;4.99;100.00
69171;BME280;56279;47.902;12.308;2024-03-02T04:05:08;94309.66;;;4.98;100.00
69171;BME280;56279;47.902;12.308;2024-03-02T04:07:13;94316.97;;;4.96;100.00
69171;BME280;56279;47.902;12.308;2024-03-02T04:09:14;94314.66;;;4.95;100.00
69171;BME280;56279;47.902;12.308;2024-03-02T04:11:15;94307.31;;;4.92;100.00
69171;BME280;56279;47.902;12.308;2024-03-02T04:13:16;94319.59;;;4.91;100.00
69171;BME280;56279;47.902;12.308;2024-03-02T04:15:18;94318.06;;;4.90;100.00
69171;BME280;56279;47.902;12.308;2024-03-02T04:17:19;94325.34;;;4.88;100.00
69171;BME280;56279;47.902;12.308;2024-03-02T04:19:21;94324.06;;;4.85;100.00
69171;BME280;56279;47.902;12.308;2024-03-02T04:21:22;94325.41;;;4.83;100.00
69171;BME280;56279;47.902;12.308;2024-03-02T04:23:23;94329.56;;;4.79;100.00
69171;BME280;56279;47.902;12.308;2024-03-02T04:25:25;94331.94;;;4.75;100.00
69171;BME280;56279;47.902;12.308;2024-03-02T04:27:27;94324.91;;;4.71;100.00
69171;BME280;56279;47.902;12.308;2024-03-02T04:29:28;94332.22;;;4.69;100.00
69171;BME280;56279;47.902;12.308;2024-03-02T04:31:29;94328.31;;;4.66;100.00
69171;BME280;56279;47.902;12.308;2024-03-02T04:33:30;94334.56;;;4.65;100.00
69171;BME280;56279;47.902;12.308;2024-03-02T04:35:32;94335.06;;;4.62;100.00
69171;BME280;56279;47.902;12.308;2024-03-02T04:37:34;94329.34;;;4.60;100.00
69171;BME280;56279;47.902;12.308;2024-03-02T04:39:35;94335.88;;;4.58;100.00
69171;BME280;56279;47.902;12.308;2024-03-02T04:41:37;94334.84;;;4.54;100.00
69171;BME280;56279;47.902;12.308;2024-03-02T04:43:39;94335.13;;;4.52;100.00
69171;BME280;56279;47.902;12.308;2024-03-02T04:45:42;94339.03;;;4.50;100.00
69171;BME280;56279;47.902;12.308;2024-03-02T04:47:44;94338.50;;;4.48;100.00
69171;BME280;56279;47.902;12.308;2024-03-02T04:49:46;94345.56;;;4.47;100.00
69171;BME280;56279;47.902;12.308;2024-03-02T04:51:47;94337.97;;;4.46;100.00
69171;BME280;56279;47.902;12.308;2024-03-02T04:53:48;94347.91;;;4.44;100.00
69171;BME280;56279;47.902;12.308;2024-03-02T04:55:50;94345.03;;;4.40;100.00
69171;BME280;56279;47.902;12.308;2024-03-02T04:58:10;94348.16;;;4.37;100.00
69171;BME280;56279;47.902;12.308;2024-03-02T05:00:11;94344.25;;;4.35;100.00
69171;BME280;56279;47.902;12.308;2024-03-02T05:02:14;94357.56;;;4.33;100.00
69171;BME280;56279;47.902;12.308;2024-03-02T05:04:17;94354.44;;;4.31;100.00
69171;BME280;56279;47.902;12.308;2024-03-02T05:06:19;94362.00;;;4.28;100.00
69171;BME280;56279;47.902;12.308;2024-03-02T05:08:20;94358.09;;;4.25;100.00
69171;BME280;56279;47.902;12.308;2024-03-02T05:10:24;94362.56;;;4.25;100.00
69171;BME280;56279;47.902;12.308;2024-03-02T05:12:26;94356.53;;;4.24;100.00
69171;BME280;56279;47.902;12.308;2024-03-02T05:14:33;94363.06;;;4.27;100.00
69171;BME280;56279;47.902;12.308;2024-03-02T05:16:36;94368.28;;;4.27;100.00
69171;BME280;56279;47.902;12.308;2024-03-02T05:18:39;94366.72;;;4.31;100.00
69171;BME280;56279;47.902;12.308;2024-03-02T05:20:41;94370.63;;;4.33;100.00
69171;BME280;56279;47.902;12.308;2024-03-02T05:22:42;94377.69;;;4.38;100.00
69171;BME280;56279;47.902;12.308;2024-03-02T05:24:43;94379.00;;;4.40;100.00
69171;BME280;56279;47.902;12.308;2024-03-02T05:26:45;94378.72;;;4.42;100.00
69171;BME280;56279;47.902;12.308;2024-03-02T05:28:46;94378.72;;;4.42;100.00
69171;BME280;56279;47.902;12.308;2024-03-02T05:30:47;94383.16;;;4.41;100.00
69171;BME280;56279;47.902;12.308;2024-03-02T05:32:51;94376.38;;;4.40;100.00
69171;BME280;56279;47.902;12.308;2024-03-02T05:34:52;94383.94;;;4.42;100.00
69171;BME280;56279;47.902;12.308;2024-03-02T05:36:54;94383.94;;;4.42;100.00
69171;BME280;56279;47.902;12.308;2024-03-02T05:38:56;94377.94;;;4.41;100.00
69171;BME280;56279;47.902;12.308;2024-03-02T05:40:59;94378.72;;;4.42;100.00
69171;BME280;56279;47.902;12.308;2024-03-02T05:43:00;94384.72;;;4.42;100.00
69171;BME280;56279;47.902;12.308;2024-03-02T05:45:01;94377.94;;;4.41;100.00
69171;BME280;56279;47.902;12.308;2024-03-02T05:47:05;94388.94;;;4.43;100.00
69171;BME280;56279;47.902;12.308;2024-03-02T05:49:10;94385.25;;;4.44;100.00
69171;BME280;56279;47.902;12.308;2024-03-02T05:51:11;94388.66;;;4.45;100.00
69171;BME280;56279;47.902;12.308;2024-03-02T05:53:12;94397.28;;;4.50;100.00
69171;BME280;56279;47.902;12.308;2024-03-02T05:55:13;94389.44;;;4.50;100.00
69171;BME280;56279;47.902;12.308;2024-03-02T05:57:15;94400.41;;;4.52;100.00
69171;BME280;56279;47.902;12.308;2024-03-02T05:59:34;94399.13;;;4.55;100.00
69171;BME280;56279;47.902;12.308;2024-03-02T06:01:36;94393.88;;;4.55;100.00
69171;BME280;56279;47.902;12.308;2024-03-02T06:03:37;94400.66;;;4.56;100.00
69171;BME280;56279;47.902;12.308;2024-03-02T06:05:38;94399.13;;;4.55;100.00
69171;BME280;56279;47.902;12.308;2024-03-02T06:07:41;94392.31;;;4.54;100.00
69171;BME280;56279;47.902;12.308;2024-03-02T06:09:44;94394.13;;;4.53;100.00
69171;BME280;56279;47.902;12.308;2024-03-02T06:11:49;94391.00;;;4.51;100.00
69171;BME280;56279;47.902;12.308;2024-03-02T06:13:51;94392.81;;;4.51;100.00
69171;BME280;56279;47.902;12.308;2024-03-02T06:15:53;94399.63;;;4.52;100.00
69171;BME280;56279;47.902;12.308;2024-03-02T06:17:54;94404.84;;;4.52;100.00
69171;BME280;56279;47.902;12.308;2024-03-02T06:19:56;94403.56;;;4.54;100.00
69171;BME280;56279;47.902;12.308;2024-03-02T06:21:57;94407.72;;;4.55;100.00
69171;BME280;56279;47.902;12.308;2024-03-02T06:23:59;94400.94;;;4.59;100.00
69171;BME280;56279;47.902;12.308;2024-03-02T06:26:02;94406.41;;;4.63;100.00
69171;BME280;56279;47.902;12.308;2024-03-02T06:28:04;94406.41;;;4.68;100.00
69171;BME280;56279;47.902;12.308;2024-03-02T06:30:06;94410.06;;;4.72;100.00
69171;BME280;56279;47.902;12.308;2024-03-02T06:32:07;94408.50;;;4.76;100.00
69171;BME280;56279;47.902;12.308;2024-03-02T06:34:10;94420.00;;;4.80;100.00
69171;BME280;56279;47.902;12.308;2024-03-02T06:36:12;94416.88;;;4.83;100.00
69171;BME280;56279;47.902;12.308;2024-03-02T06:38:16;94418.94;;;4.86;100.00
69171;BME280;56279;47.902;12.308;2024-03-02T06:40:19;94417.91;;;4.87;100.00
69171;BME280;56279;47.902;12.308;2024-03-02T06:42:20;94424.69;;;4.88;100.00
69171;BME280;56279;47.902;12.308;2024-03-02T06:44:21;94428.59;;;4.90;100.00
69171;BME280;56279;47.902;12.308;2024-03-02T06:46:22;94432.53;;;4.93;100.00
69171;BME280;56279;47.902;12.308;2024-03-02T06:48:25;94431.22;;;4.96;100.00
69171;BME280;56279;47.902;12.308;2024-03-02T06:50:26;94432.25;;;5.00;100.00
69171;BME280;56279;47.902;12.308;2024-03-02T06:52:28;94427.56;;;5.02;100.00
69171;BME280;56279;47.902;12.308;2024-03-02T06:54:29;94437.75;;;5.03;100.00
69171;BME280;56279;47.902;12.308;2024-03-02T06:56:31;94428.59;;;5.06;100.00
69171;BME280;56279;47.902;12.308;2024-03-02T06:58:34;94433.31;;;5.09;100.00
69171;BME280;56279;47.902;12.308;2024-03-02T07:00:35;94431.44;;;5.14;100.00
69171;BME280;56279;47.902;12.308;2024-03-02T07:02:36;94429.88;;;5.18;100.00
69171;BME280;56279;47.902;12.308;2024-03-02T07:04:38;94429.06;;;5.23;100.00
69171;BME280;56279;47.902;12.308;2024-03-02T07:06:40;94433.53;;;5.27;100.00
69171;BME280;56279;47.902;12.308;2024-03-02T07:08:41;94429.06;;;5.33;100.00
69171;BME280;56279;47.902;12.308;2024-03-02T07:10:42;94434.78;;;5.40;100.00
69171;BME280;56279;47.902;12.308;2024-03-02T07:12:43;94436.63;;;5.44;100.00
69171;BME280;56279;47.902;12.308;2024-03-02T07:14:46;94436.06;;;5.52;100.00
69171;BME280;56279;47.902;12.308;2024-03-02T07:17:07;94436.03;;;5.63;100.00
69171;BME280;56279;47.902;12.308;2024-03-02T07:19:11;94437.31;;;5.70;100.00
69171;BME280;56279;47.902;12.308;2024-03-02T07:21:13;94446.44;;;5.78;100.00
69171;BME280;56279;47.902;12.308;2024-03-02T07:23:17;94445.66;;;5.87;100.00
69171;BME280;56279;47.902;12.308;2024-03-02T07:25:20;94444.31;;;5.95;100.00
69171;BME280;56279;47.902;12.308;2024-03-02T07:27:21;94447.69;;;6.00;100.00
69171;BME280;56279;47.902;12.308;2024-03-02T07:29:23;94442.69;;;6.04;100.00
69171;BME280;56279;47.902;12.308;2024-03-02T07:31:24;94451.06;;;6.06;100.00
69171;BME280;56279;47.902;12.308;2024-03-02T07:33:25;94443.72;;;6.08;100.00
69171;BME280;56279;47.902;12.308;2024-03-02T07:35:27;94448.44;;;6.11;100.00
69171;BME280;56279;47.902;12.308;2024-03-02T07:37:28;94448.66;;;6.14;100.00
69171;BME280;56279;47.902;12.308;2024-03-02T07:39:30;94452.56;;;6.17;100.00
69171;BME280;56279;47.902;12.308;2024-03-02T07:41:31;94451.53;;;6.18;100.00
69171;BME280;56279;47.902;12.308;2024-03-02T07:43:33;94451.53;;;6.18;100.00
69171;BME280;56279;47.902;12.308;2024-03-02T07:45:36;94453.38;;;6.17;100.00
69171;BME280;56279;47.902;12.308;2024-03-02T07:47:37;94453.66;;;6.16;100.00
69171;BME280;56279;47.902;12.308;2024-03-02T07:49:39;94460.44;;;6.17;100.00
69171;BME280;56279;47.902;12.308;2024-03-02T07:51:41;94455.72;;;6.19;100.00
69171;BME280;56279;47.902;12.308;2024-03-02T07:53:46;94457.28;;;6.20;100.00
69171;BME280;56279;47.902;12.308;2024-03-02T07:55:47;94458.03;;;6.25;100.00
69171;BME280;56279;47.902;12.308;2024-03-02T07:57:48;94455.88;;;6.33;100.00
69171;BME280;56279;47.902;12.308;2024-03-02T07:59:52;94457.66;;;6.42;100.00
69171;BME280;56279;47.902;12.308;2024-03-02T08:01:53;94456.00;;;6.56;100.00
69171;BME280;56279;47.902;12.308;2024-03-02T08:04:00;94453.00;;;6.73;100.00
69171;BME280;56279;47.902;12.308;2024-03-02T08:06:04;94446.53;;;6.94;100.00
69171;BME280;56279;47.902;12.308;2024-03-02T08:08:06;94452.41;;;7.15;100.00
69171;BME280;56279;47.902;12.308;2024-03-02T08:10:08;94453.50;;;7.37;100.00
69171;BME280;56279;47.902;12.308;2024-03-02T08:12:09;94453.50;;;7.61;99.82
69171;BME280;56279;47.902;12.308;2024-03-02T08:14:11;94446.97;;;7.82;99.28
69171;BME280;56279;47.902;12.308;2024-03-02T08:16:13;94447.00;;;8.01;98.53
69171;BME280;56279;47.902;12.308;2024-03-02T08:18:14;94450.94;;;8.22;97.76
69171;BME280;56279;47.902;12.308;2024-03-02T08:20:17;94448.94;;;8.38;97.41
69171;BME280;56279;47.902;12.308;2024-03-02T08:22:19;94457.16;;;8.50;97.22
69171;BME280;56279;47.902;12.308;2024-03-02T08:24:21;94451.78;;;8.60;96.94
69171;BME280;56279;47.902;12.308;2024-03-02T08:26:23;94447.34;;;8.74;96.88
69171;BME280;56279;47.902;12.308;2024-03-02T08:28:25;94446.59;;;8.87;96.28
69171;BME280;56279;47.902;12.308;2024-03-02T08:30:27;94450.44;;;8.94;95.97
69171;BME280;56279;47.902;12.308;2024-03-02T08:32:28;94440.06;;;9.03;95.57
69171;BME280;56279;47.902;12.308;2024-03-02T08:34:29;94451.00;;;9.10;95.27
69171;BME280;56279;47.902;12.308;2024-03-02T08:36:32;94449.53;;;9.18;95.00
69171;BME280;56279;47.902;12.308;2024-03-02T08:38:33;94445.47;;;9.25;94.92
69171;BME280;56279;47.902;12.308;2024-03-02T08:40:35;94440.91;;;9.31;94.43
69171;BME280;56279;47.902;12.308;2024-03-02T08:42:36;94447.84;;;9.40;94.27
69171;BME280;56279;47.902;12.308;2024-03-02T08:44:37;94440.34;;;9.47;93.96
69171;BME280;56279;47.902;12.308;2024-03-02T08:46:40;94436.06;;;9.51;93.86
69171;BME280;56279;47.902;12.308;2024-03-02T08:48:41;94429.63;;;9.57;93.67
69171;BME280;56279;47.902;12.308;2024-03-02T08:50:43;94438.78;;;9.60;93.77
69171;BME280;56279;47.902;12.308;2024-03-02T08:52:44;94440.06;;;9.62;93.63
69171;BME280;56279;47.902;12.308;2024-03-02T08:54:46;94435.28;;;9.64;93.33
69171;BME280;56279;47.902;12.308;2024-03-02T08:56:48;94432.06;;;9.67;93.10
69171;BME280;56279;47.902;12.308;2024-03-02T08:58:51;94430.41;;;9.71;93.05
69171;BME280;56279;47.902;12.308;2024-03-02T09:00:53;94431.38;;;9.75;92.62
69171;BME280;56279;47.902;12.308;2024-03-02T09:02:54;94430.53;;;9.80;92.69
69171;BME280;56279;47.902;12.308;2024-03-02T09:04:56;94425.91;;;9.86;92.32
69171;BME280;56279;47.902;12.308;2024-03-02T09:06:57;94426.59;;;9.91;92.12
69171;BME280;56279;47.902;12.308;2024-03-02T09:08:58;94432.75;;;10.00;91.76
69171;BME280;56279;47.902;12.308;2024-03-02T09:11:00;94436.56;;;10.08;91.41
69171;BME280;56279;47.902;12.308;2024-03-02T09:13:01;94429.22;;;10.18;91.40
69171;BME280;56279;47.902;12.308;2024-03-02T09:15:02;94427.94;;;10.29;90.72
69171;BME280;56279;47.902;12.308;2024-03-02T09:17:04;94428.03;;;10.38;90.45
69171;BME280;56279;47.902;12.308;2024-03-02T09:19:10;94432.09;;;10.44;90.17
69171;BME280;56279;47.902;12.308;2024-03-02T09:21:12;94428.28;;;10.50;89.62
69171;BME280;56279;47.902;12.308;2024-03-02T09:23:16;94422.13;;;10.55;89.36
69171;BME280;56279;47.902;12.308;2024-03-02T09:25:17;94430.69;;;10.60;89.07
69171;BME280;56279;47.902;12.308;2024-03-02T09:27:19;94421.47;;;10.71;88.63
69171;BME280;56279;47.902;12.308;2024-03-02T09:29:20;94428.66;;;10.79;88.24
69171;BME280;56279;47.902;12.308;2024-03-02T09:31:23;94427.66;;;10.89;87.78
69171;BME280;56279;47.902;12.308;2024-03-02T09:33:25;94421.84;;;11.00;87.30
69171;BME280;56279;47.902;12.308;2024-03-02T09:35:27;94423.72;;;11.08;87.03
69171;BME280;56279;47.902;12.308;2024-03-02T09:37:28;94421.28;;;11.12;86.38
69171;BME280;56279;47.902;12.308;2024-03-02T09:39:30;94414.03;;;11.18;86.43
69171;BME280;56279;47.902;12.308;2024-03-02T09:41:33;94415.81;;;11.31;85.75
69171;BME280;56279;47.902;12.308;2024-03-02T09:43:34;94415.94;;;11.26;85.54
69171;BME280;56279;47.902;12.308;2024-03-02T09:45:36;94422.78;;;11.27;85.86
69171;BME280;56279;47.902;12.308;2024-03-02T09:47:38;94420.66;;;11.37;85.55
69171;BME280;56279;47.902;12.308;2024-03-02T09:49:40;94415.31;;;11.29;84.20
69171;BME280;56279;47.902;12.308;2024-03-02T09:51:47;94411.00;;;11.33;84.27
69171;BME280;56279;47.902;12.308;2024-03-02T09:53:49;94421.50;;;11.24;83.91
69171;BME280;56279;47.902;12.308;2024-03-02T09:55:52;94408.47;;;11.28;83.97
69171;BME280;56279;47.902;12.308;2024-03-02T09:57:57;94405.41;;;11.34;83.19
69171;BME280;56279;47.902;12.308;2024-03-02T09:59:59;94409.78;;;11.39;83.42
69171;BME280;56279;47.902;12.308;2024-03-02T10:02:03;94404.56;;;11.56;83.07
69171;BME280;56279;47.902;12.308;2024-03-02T10:04:08;94402.19;;;11.76;82.56
69171;BME280;56279;47.902;12.308;2024-03-02T10:06:25;94401.59;;;11.88;81.90
69171;BME280;56279;47.902;12.308;2024-03-02T10:08:26;94403.66;;;12.00;81.03
69171;BME280;56279;47.902;12.308;2024-03-02T10:10:43;94395.13;;;12.11;80.51
69171;BME280;56279;47.902;12.308;2024-03-02T10:12:44;94398.59;;;12.29;80.17
69171;BME280;56279;47.902;12.308;2024-03-02T10:14:47;94396.25;;;12.36;79.60
69171;BME280;56279;47.902;12.308;2024-03-02T10:16:50;94390.19;;;12.44;78.94
69171;BME280;56279;47.902;12.308;2024-03-02T10:18:51;94394.38;;;12.54;78.89
69171;BME280;56279;47.902;12.308;2024-03-02T10:20:52;94390.66;;;12.63;77.88
69171;BME280;56279;47.902;12.308;2024-03-02T10:22:53;94384.88;;;12.70;77.44
69171;BME280;56279;47.902;12.308;2024-03-02T10:24:55;94382.25;;;12.78;76.90
69171;BME280;56279;47.902;12.308;2024-03-02T10:26:56;94383.63;;;12.84;77.03
69171;BME280;56279;47.902;12.308;2024-03-02T10:28:57;94373.97;;;12.88;76.89
69171;BME280;56279;47.902;12.308;2024-03-02T10:31:00;94381.16;;;12.88;76.86
69171;BME280;56279;47.902;12.308;2024-03-02T10:33:03;94372.88;;;12.89;77.13
69171;BME280;56279;47.902;12.308;2024-03-02T10:35:06;94371.03;;;12.90;76.97
69171;BME280;56279;47.902;12.308;2024-03-02T10:37:08;94376.81;;;12.83;76.65
69171;BME280;56279;47.902;12.308;2024-03-02T10:39:10;94374.94;;;12.67;76.17
69171;BME280;56279;47.902;12.308;2024-03-02T10:41:11;94375.72;;;12.41;76.05
69171;BME280;56279;47.902;12.308;2024-03-02T10:43:13;94377.75;;;12.27;77.45